sensor_id;sensor_type;location;lat;lon;timestamp;pressure;altitude;pressure_sealevel;temperature;humidity
61676;BME280;47574;52.090;5.244;2023-08-30T00:00:40;100853.0;;;19.71;53.76
61676;BME280;47574;52.090;5.244;2023-08-30T00:02:17;100847.0;;;19.75;53.8
61676;BME280;47574;52.090;5.244;2023-08-30T00:05:29;100846.0;;;19.84;53.84
61676;BME280;47574;52.090;5.244;2023-08-30T00:07:06;100840.0;;;19.59;54.08
61676;BME280;47574;52.090;5.244;2023-08-30T00:08:42;100840.0;;;19.72;53.9
61676;BME280;47574;52.090;5.244;2023-08-30T00:10:18;100837.0;;;19.81;53.61
61676;BME280;47574;52.090;5.244;2023-08-30T00:13:31;100837.0;;;19.84;53.4
61676;BME280;47574;52.090;5.244;2023-08-30T00:15:08;100833.0;;;19.81;53.6
61676;BME280;47574;52.090;5.244;2023-08-30T00:16:44;100827.0;;;19.79;53.61
61676;BME280;47574;52.090;5.244;2023-08-30T00:19:58;100822.0;;;19.84;53.44
61676;BME280;47574;52.090;5.244;2023-08-30T00:21:34;100820.0;;;19.8;53.57
61676;BME280;47574;52.090;5.244;2023-08-30T00:23:10;100817.0;;;19.81;53.61
61676;BME280;47574;52.090;5.244;2023-08-30T00:26:22;100812.0;;;19.88;53.54
61676;BME280;47574;52.090;5.244;2023-08-30T00:27:58;100810.0;;;19.86;53.59
61676;BME280;47574;52.090;5.244;2023-08-30T00:29:34;100812.0;;;20.06;53.23
61676;BME280;47574;52.090;5.244;2023-08-30T00:31:10;100811.0;;;19.87;53.56
61676;BME280;47574;52.090;5.244;2023-08-30T00:34:22;100811.0;;;19.71;53.85
61676;BME280;47574;52.090;5.244;2023-08-30T00:35:59;100809.0;;;19.66;54.04
61676;BME280;47574;52.090;5.244;2023-08-30T00:37:36;100810.0;;;19.84;53.7
61676;BME280;47574;52.090;5.244;2023-08-30T00:40:48;100810.0;;;19.81;53.64
61676;BME280;47574;52.090;5.244;2023-08-30T00:42:24;100806.0;;;19.77;53.74
61676;BME280;47574;52.090;5.244;2023-08-30T00:44:00;100806.0;;;19.88;53.75
61676;BME280;47574;52.090;5.244;2023-08-30T00:47:15;100801.0;;;19.96;53.7
61676;BME280;47574;52.090;5.244;2023-08-30T00:48:52;100801.0;;;19.72;53.78
61676;BME280;47574;52.090;5.244;2023-08-30T00:50:29;100799.0;;;19.81;53.82
61676;BME280;47574;52.090;5.244;2023-08-30T00:52:06;100799.0;;;19.88;53.47
61676;BME280;47574;52.090;5.244;2023-08-30T00:55:22;100803.0;;;19.84;53.56
61676;BME280;47574;52.090;5.244;2023-08-30T00:57:00;100806.0;;;19.78;53.55
61676;BME280;47574;52.090;5.244;2023-08-30T00:58:37;100799.0;;;19.96;53.41
61676;BME280;47574;52.090;5.244;2023-08-30T01:01:50;100798.0;;;19.89;53.38
61676;BME280;47574;52.090;5.244;2023-08-30T01:03:26;100787.0;;;19.86;53.28
61676;BME280;47574;52.090;5.244;2023-08-30T01:05:03;100791.0;;;19.78;53.26
61676;BME280;47574;52.090;5.244;2023-08-30T01:08:15;100792.0;;;19.93;53.13
61676;BME280;47574;52.090;5.244;2023-08-30T01:09:51;100787.0;;;19.95;52.98
61676;BME280;47574;52.090;5.244;2023-08-30T01:11:33;100785.0;;;19.82;53.31
61676;BME280;47574;52.090;5.244;2023-08-30T01:13:16;100786.0;;;19.95;52.97
61676;BME280;47574;52.090;5.244;2023-08-30T01:16:37;100786.0;;;19.87;53.13
61676;BME280;47574;52.090;5.244;2023-08-30T01:18:17;100785.0;;;19.75;53.48
61676;BME280;47574;52.090;5.244;2023-08-30T01:19:58;100789.0;;;19.71;53.37
61676;BME280;47574;52.090;5.244;2023-08-30T01:21:47;100790.0;;;19.84;53.4
61676;BME280;47574;52.090;5.244;2023-08-30T01:23:36;100786.0;;;19.81;53.56
61676;BME280;47574;52.090;5.244;2023-08-30T01:27:15;100787.0;;;19.87;53.29
61676;BME280;47574;52.090;5.244;2023-08-30T01:28:52;100790.0;;;19.68;53.5
61676;BME280;47574;52.090;5.244;2023-08-30T01:30:30;100792.0;;;19.66;53.56
61676;BME280;47574;52.090;5.244;2023-08-30T01:32:09;100790.0;;;19.77;53.4
61676;BME280;47574;52.090;5.244;2023-08-30T01:35:22;100791.0;;;19.8;53.45
61676;BME280;47574;52.090;5.244;2023-08-30T01:37:02;100790.0;;;19.75;53.36
61676;BME280;47574;52.090;5.244;2023-08-30T01:38:40;100789.0;;;19.95;53.24
61676;BME280;47574;52.090;5.244;2023-08-30T01:40:18;100785.0;;;19.88;52.95
61676;BME280;47574;52.090;5.244;2023-08-30T01:43:32;100783.0;;;20.02;53.0
61676;BME280;47574;52.090;5.244;2023-08-30T01:45:10;100780.0;;;20.13;52.72
61676;BME280;47574;52.090;5.244;2023-08-30T01:46:47;100775.0;;;20.0;53.04
61676;BME280;47574;52.090;5.244;2023-08-30T01:50:02;100772.0;;;19.91;53.05
61676;BME280;47574;52.090;5.244;2023-08-30T01:51:40;100767.0;;;19.8;53.31
61676;BME280;47574;52.090;5.244;2023-08-30T01:53:16;100768.0;;;19.91;53.03
61676;BME280;47574;52.090;5.244;2023-08-30T01:54:53;100769.0;;;20.07;52.9
61676;BME280;47574;52.090;5.244;2023-08-30T01:58:06;100763.0;;;19.98;52.61
61676;BME280;47574;52.090;5.244;2023-08-30T01:59:43;100764.0;;;19.79;53.23
61676;BME280;47574;52.090;5.244;2023-08-30T02:01:19;100762.0;;;20.0;52.61
61676;BME280;47574;52.090;5.244;2023-08-30T02:04:32;100760.0;;;19.96;52.84
61676;BME280;47574;52.090;5.244;2023-08-30T02:06:11;100759.0;;;19.93;52.88
61676;BME280;47574;52.090;5.244;2023-08-30T02:07:55;100757.0;;;19.93;53.06
61676;BME280;47574;52.090;5.244;2023-08-30T02:09:42;100761.0;;;20.02;52.93
61676;BME280;47574;52.090;5.244;2023-08-30T02:13:04;100758.0;;;20.05;52.8
61676;BME280;47574;52.090;5.244;2023-08-30T02:14:44;100755.0;;;20.11;52.31
61676;BME280;47574;52.090;5.244;2023-08-30T02:16:25;100755.0;;;20.11;52.42
61676;BME280;47574;52.090;5.244;2023-08-30T02:18:04;100757.0;;;20.02;52.71
61676;BME280;47574;52.090;5.244;2023-08-30T02:21:18;100755.0;;;20.03;52.7
61676;BME280;47574;52.090;5.244;2023-08-30T02:22:58;100749.0;;;20.18;52.62
61676;BME280;47574;52.090;5.244;2023-08-30T02:24:34;100753.0;;;19.87;52.77
61676;BME280;47574;52.090;5.244;2023-08-30T02:26:10;100756.0;;;20.0;52.79
61676;BME280;47574;52.090;5.244;2023-08-30T02:29:23;100751.0;;;19.96;52.59
61676;BME280;47574;52.090;5.244;2023-08-30T02:30:59;100752.0;;;19.96;52.42
61676;BME280;47574;52.090;5.244;2023-08-30T02:32:35;100747.0;;;20.02;52.47
61676;BME280;47574;52.090;5.244;2023-08-30T02:35:47;100746.0;;;20.07;52.22
61676;BME280;47574;52.090;5.244;2023-08-30T02:37:23;100742.0;;;19.98;52.55
61676;BME280;47574;52.090;5.244;2023-08-30T02:38:59;100739.0;;;20.09;52.31
61676;BME280;47574;52.090;5.244;2023-08-30T02:42:12;100730.0;;;20.09;52.23
61676;BME280;47574;52.090;5.244;2023-08-30T02:43:48;100734.0;;;19.93;52.51
61676;BME280;47574;52.090;5.244;2023-08-30T02:45:24;100732.0;;;20.09;52.07
61676;BME280;47574;52.090;5.244;2023-08-30T02:48:36;100724.0;;;20.09;51.85
61676;BME280;47574;52.090;5.244;2023-08-30T02:50:12;100722.0;;;20.07;52.06
61676;BME280;47574;52.090;5.244;2023-08-30T02:51:48;100720.0;;;20.11;52.11
61676;BME280;47574;52.090;5.244;2023-08-30T02:53:24;100724.0;;;19.86;52.4
61676;BME280;47574;52.090;5.244;2023-08-30T02:56:37;100717.0;;;20.05;52.12
61676;BME280;47574;52.090;5.244;2023-08-30T02:58:14;100715.0;;;20.09;51.92
61676;BME280;47574;52.090;5.244;2023-08-30T02:59:50;100716.0;;;19.84;52.14
61676;BME280;47574;52.090;5.244;2023-08-30T03:03:03;100711.0;;;19.88;52.11
61676;BME280;47574;52.090;5.244;2023-08-30T03:04:39;100701.0;;;19.89;52.23
61676;BME280;47574;52.090;5.244;2023-08-30T03:06:15;100703.0;;;19.81;52.34
61676;BME280;47574;52.090;5.244;2023-08-30T03:09:29;100701.0;;;19.8;52.31
61676;BME280;47574;52.090;5.244;2023-08-30T03:11:09;100691.0;;;19.93;52.17
61676;BME280;47574;52.090;5.244;2023-08-30T03:12:45;100687.0;;;19.82;52.36
61676;BME280;47574;52.090;5.244;2023-08-30T03:14:21;100693.0;;;19.77;52.38
61676;BME280;47574;52.090;5.244;2023-08-30T03:17:33;100686.0;;;19.89;52.18
61676;BME280;47574;52.090;5.244;2023-08-30T03:19:10;100682.0;;;19.82;52.0
61676;BME280;47574;52.090;5.244;2023-08-30T03:20:46;100680.0;;;19.81;52.0
61676;BME280;47574;52.090;5.244;2023-08-30T03:23:59;100683.0;;;19.68;52.34
61676;BME280;47574;52.090;5.244;2023-08-30T03:25:35;100680.0;;;19.48;52.44
61676;BME280;47574;52.090;5.244;2023-08-30T03:27:11;100682.0;;;19.39;52.74
61676;BME280;47574;52.090;5.244;2023-08-30T03:30:23;100684.0;;;19.61;52.7
61676;BME280;47574;52.090;5.244;2023-08-30T03:31:59;100683.0;;;19.47;52.93
61676;BME280;47574;52.090;5.244;2023-08-30T03:33:35;100674.0;;;19.64;52.24
61676;BME280;47574;52.090;5.244;2023-08-30T03:36:48;100676.0;;;19.63;52.47
61676;BME280;47574;52.090;5.244;2023-08-30T03:38:24;100671.0;;;19.68;52.22
61676;BME280;47574;52.090;5.244;2023-08-30T03:40:00;100669.0;;;19.63;52.41
61676;BME280;47574;52.090;5.244;2023-08-30T03:41:36;100659.0;;;19.75;52.01
61676;BME280;47574;52.090;5.244;2023-08-30T03:44:48;100660.0;;;19.68;52.12
61676;BME280;47574;52.090;5.244;2023-08-30T03:46:24;100657.0;;;19.7;51.86
61676;BME280;47574;52.090;5.244;2023-08-30T03:48:00;100650.0;;;19.68;52.02
61676;BME280;47574;52.090;5.244;2023-08-30T03:51:13;100649.0;;;19.63;52.04
61676;BME280;47574;52.090;5.244;2023-08-30T03:52:49;100646.0;;;19.41;52.42
61676;BME280;47574;52.090;5.244;2023-08-30T03:54:25;100640.0;;;19.5;52.32
61676;BME280;47574;52.090;5.244;2023-08-30T03:57:37;100641.0;;;19.34;52.39
61676;BME280;47574;52.090;5.244;2023-08-30T03:59:13;100643.0;;;19.46;52.2
61676;BME280;47574;52.090;5.244;2023-08-30T04:00:49;100639.0;;;19.53;52.25
61676;BME280;47574;52.090;5.244;2023-08-30T04:02:25;100637.0;;;19.09;53.02
61676;BME280;47574;52.090;5.244;2023-08-30T04:05:38;100635.0;;;19.13;52.83
61676;BME280;47574;52.090;5.244;2023-08-30T04:07:14;100638.0;;;19.04;53.16
61676;BME280;47574;52.090;5.244;2023-08-30T04:08:50;100642.0;;;19.32;52.64
61676;BME280;47574;52.090;5.244;2023-08-30T04:12:03;100636.0;;;19.25;52.69
61676;BME280;47574;52.090;5.244;2023-08-30T04:13:39;100628.0;;;19.11;52.88
61676;BME280;47574;52.090;5.244;2023-08-30T04:15:15;100628.0;;;19.18;52.8
61676;BME280;47574;52.090;5.244;2023-08-30T04:18:29;100631.0;;;19.05;52.87
61676;BME280;47574;52.090;5.244;2023-08-30T04:20:06;100631.0;;;19.11;53.02
61676;BME280;47574;52.090;5.244;2023-08-30T04:21:43;100633.0;;;19.07;52.84
61676;BME280;47574;52.090;5.244;2023-08-30T04:23:19;100634.0;;;19.04;52.82
61676;BME280;47574;52.090;5.244;2023-08-30T04:26:31;100634.0;;;19.11;52.41
61676;BME280;47574;52.090;5.244;2023-08-30T04:28:07;100632.0;;;19.0;52.92
61676;BME280;47574;52.090;5.244;2023-08-30T04:29:43;100628.0;;;18.89;52.96
61676;BME280;47574;52.090;5.244;2023-08-30T04:34:32;100628.0;;;19.0;52.51
61676;BME280;47574;52.090;5.244;2023-08-30T04:36:08;100631.0;;;18.77;53.02
61676;BME280;47574;52.090;5.244;2023-08-30T04:39:20;100626.0;;;18.84;52.93
61676;BME280;47574;52.090;5.244;2023-08-30T04:40:57;100623.0;;;18.84;52.95
61676;BME280;47574;52.090;5.244;2023-08-30T04:42:33;100614.0;;;18.91;52.74
61676;BME280;47574;52.090;5.244;2023-08-30T04:45:47;100613.0;;;18.96;52.55
61676;BME280;47574;52.090;5.244;2023-08-30T04:47:24;100611.0;;;18.95;52.73
61676;BME280;47574;52.090;5.244;2023-08-30T04:49:00;100611.0;;;19.04;52.23
61676;BME280;47574;52.090;5.244;2023-08-30T04:50:36;100605.0;;;19.0;52.19
61676;BME280;47574;52.090;5.244;2023-08-30T04:53:48;100603.0;;;18.79;52.47
61676;BME280;47574;52.090;5.244;2023-08-30T04:55:25;100608.0;;;18.77;52.82
61676;BME280;47574;52.090;5.244;2023-08-30T04:57:00;100610.0;;;18.62;53.04
61676;BME280;47574;52.090;5.244;2023-08-30T05:00:13;100615.0;;;18.7;52.91
61676;BME280;47574;52.090;5.244;2023-08-30T05:01:50;100614.0;;;18.84;52.58
61676;BME280;47574;52.090;5.244;2023-08-30T05:03:26;100611.0;;;18.72;52.9
61676;BME280;47574;52.090;5.244;2023-08-30T05:06:38;100607.0;;;18.63;52.93
61676;BME280;47574;52.090;5.244;2023-08-30T05:08:14;100598.0;;;18.68;53.01
61676;BME280;47574;52.090;5.244;2023-08-30T05:09:50;100590.0;;;18.81;52.62
61676;BME280;47574;52.090;5.244;2023-08-30T05:11:26;100589.0;;;18.79;52.6
61676;BME280;47574;52.090;5.244;2023-08-30T05:14:38;100587.0;;;18.61;53.07
61676;BME280;47574;52.090;5.244;2023-08-30T05:16:15;100587.0;;;18.66;52.87
61676;BME280;47574;52.090;5.244;2023-08-30T05:17:51;100585.0;;;18.72;52.82
61676;BME280;47574;52.090;5.244;2023-08-30T05:21:04;100586.0;;;18.23;53.93
61676;BME280;47574;52.090;5.244;2023-08-30T05:22:40;100582.0;;;18.27;53.96
61676;BME280;47574;52.090;5.244;2023-08-30T05:24:16;100585.0;;;18.36;54.09
61676;BME280;47574;52.090;5.244;2023-08-30T05:27:28;100586.0;;;18.16;54.25
61676;BME280;47574;52.090;5.244;2023-08-30T05:29:04;100586.0;;;18.45;53.77
61676;BME280;47574;52.090;5.244;2023-08-30T05:30:42;100587.0;;;18.54;53.78
61676;BME280;47574;52.090;5.244;2023-08-30T05:33:55;100586.0;;;18.7;53.53
61676;BME280;47574;52.090;5.244;2023-08-30T05:35:31;100588.0;;;18.78;53.46
61676;BME280;47574;52.090;5.244;2023-08-30T05:37:07;100587.0;;;19.0;53.05
61676;BME280;47574;52.090;5.244;2023-08-30T05:38:43;100588.0;;;18.95;53.16
61676;BME280;47574;52.090;5.244;2023-08-30T05:41:55;100594.0;;;18.68;53.57
61676;BME280;47574;52.090;5.244;2023-08-30T05:43:31;100590.0;;;18.7;53.78
61676;BME280;47574;52.090;5.244;2023-08-30T05:45:09;100591.0;;;18.87;53.28
61676;BME280;47574;52.090;5.244;2023-08-30T05:48:22;100593.0;;;18.86;53.42
61676;BME280;47574;52.090;5.244;2023-08-30T05:49:58;100595.0;;;18.98;53.16
61676;BME280;47574;52.090;5.244;2023-08-30T05:51:34;100605.0;;;19.0;53.17
61676;BME280;47574;52.090;5.244;2023-08-30T05:54:46;100606.0;;;19.11;53.02
61676;BME280;47574;52.090;5.244;2023-08-30T05:56:22;100603.0;;;19.14;52.89
61676;BME280;47574;52.090;5.244;2023-08-30T05:58:00;100606.0;;;19.16;53.12
61676;BME280;47574;52.090;5.244;2023-08-30T05:59:36;100599.0;;;19.34;52.72
61676;BME280;47574;52.090;5.244;2023-08-30T06:02:50;100606.0;;;19.21;52.77
61676;BME280;47574;52.090;5.244;2023-08-30T06:04:26;100596.0;;;19.39;52.68
61676;BME280;47574;52.090;5.244;2023-08-30T06:06:02;100592.0;;;19.39;52.76
61676;BME280;47574;52.090;5.244;2023-08-30T06:09:14;100590.0;;;19.34;52.92
61676;BME280;47574;52.090;5.244;2023-08-30T06:10:50;100592.0;;;19.05;53.7
61676;BME280;47574;52.090;5.244;2023-08-30T06:12:26;100586.0;;;19.13;53.85
61676;BME280;47574;52.090;5.244;2023-08-30T06:15:38;100571.0;;;19.23;53.89
61676;BME280;47574;52.090;5.244;2023-08-30T06:17:14;100564.0;;;19.2;54.1
61676;BME280;47574;52.090;5.244;2023-08-30T06:18:50;100567.0;;;19.36;54.83
61676;BME280;47574;52.090;5.244;2023-08-30T06:22:03;100569.0;;;19.25;55.3
61676;BME280;47574;52.090;5.244;2023-08-30T06:23:41;100574.0;;;19.34;55.37
61676;BME280;47574;52.090;5.244;2023-08-30T06:25:17;100578.0;;;19.3;55.97
61676;BME280;47574;52.090;5.244;2023-08-30T06:26:53;100580.0;;;19.34;56.21
61676;BME280;47574;52.090;5.244;2023-08-30T06:30:06;100577.0;;;19.39;56.22
61676;BME280;47574;52.090;5.244;2023-08-30T06:31:43;100577.0;;;19.45;56.82
61676;BME280;47574;52.090;5.244;2023-08-30T06:33:19;100578.0;;;19.31;57.64
61676;BME280;47574;52.090;5.244;2023-08-30T06:36:32;100575.0;;;19.47;58.04
61676;BME280;47574;52.090;5.244;2023-08-30T06:38:08;100568.0;;;19.5;58.09
61676;BME280;47574;52.090;5.244;2023-08-30T06:39:44;100565.0;;;19.32;58.28
61676;BME280;47574;52.090;5.244;2023-08-30T06:42:56;100569.0;;;19.0;58.1
61676;BME280;47574;52.090;5.244;2023-08-30T06:44:32;100559.0;;;19.07;58.4
61676;BME280;47574;52.090;5.244;2023-08-30T06:46:08;100555.0;;;19.13;59.11
61676;BME280;47574;52.090;5.244;2023-08-30T06:47:44;100555.0;;;19.16;59.21
61676;BME280;47574;52.090;5.244;2023-08-30T06:50:57;100553.0;;;19.16;58.83
61676;BME280;47574;52.090;5.244;2023-08-30T06:52:34;100550.0;;;19.05;58.98
61676;BME280;47574;52.090;5.244;2023-08-30T06:54:10;100555.0;;;18.82;60.11
61676;BME280;47574;52.090;5.244;2023-08-30T06:57:32;100544.0;;;19.04;60.1
61676;BME280;47574;52.090;5.244;2023-08-30T06:59:09;100548.0;;;18.78;60.58
61676;BME280;47574;52.090;5.244;2023-08-30T07:00:45;100545.0;;;18.97;60.19
61676;BME280;47574;52.090;5.244;2023-08-30T07:02:21;100549.0;;;18.73;60.83
61676;BME280;47574;52.090;5.244;2023-08-30T07:05:33;100545.0;;;18.78;61.7
61676;BME280;47574;52.090;5.244;2023-08-30T07:07:09;100545.0;;;18.86;60.99
61676;BME280;47574;52.090;5.244;2023-08-30T07:08:47;100540.0;;;18.97;61.3
61676;BME280;47574;52.090;5.244;2023-08-30T07:12:00;100534.0;;;19.04;60.9
61676;BME280;47574;52.090;5.244;2023-08-30T07:13:36;100534.0;;;18.97;61.16
61676;BME280;47574;52.090;5.244;2023-08-30T07:15:13;100543.0;;;18.89;61.61
61676;BME280;47574;52.090;5.244;2023-08-30T07:18:26;100535.0;;;18.95;61.64
61676;BME280;47574;52.090;5.244;2023-08-30T07:20:02;100528.0;;;19.2;61.14
61676;BME280;47574;52.090;5.244;2023-08-30T07:21:39;100525.0;;;19.06;61.18
61676;BME280;47574;52.090;5.244;2023-08-30T07:23:16;100525.0;;;19.13;61.11
61676;BME280;47574;52.090;5.244;2023-08-30T07:26:28;100520.0;;;19.07;61.38
61676;BME280;47574;52.090;5.244;2023-08-30T07:28:04;100523.0;;;19.3;61.2
61676;BME280;47574;52.090;5.244;2023-08-30T07:29:41;100521.0;;;19.41;60.91
61676;BME280;47574;52.090;5.244;2023-08-30T07:32:54;100513.0;;;19.16;61.09
61676;BME280;47574;52.090;5.244;2023-08-30T07:34:29;100517.0;;;19.27;61.19
61676;BME280;47574;52.090;5.244;2023-08-30T07:36:06;100511.0;;;19.38;61.12
61676;BME280;47574;52.090;5.244;2023-08-30T07:39:18;100508.0;;;19.34;61.1
61676;BME280;47574;52.090;5.244;2023-08-30T07:40:54;100506.0;;;19.34;61.25
61676;BME280;47574;52.090;5.244;2023-08-30T07:42:30;100502.0;;;19.48;61.05
61676;BME280;47574;52.090;5.244;2023-08-30T07:45:42;100494.0;;;19.43;61.08
61676;BME280;47574;52.090;5.244;2023-08-30T07:47:18;100497.0;;;19.31;61.38
61676;BME280;47574;52.090;5.244;2023-08-30T07:48:54;100488.0;;;19.29;61.66
61676;BME280;47574;52.090;5.244;2023-08-30T07:50:30;100486.0;;;19.28;61.68
61676;BME280;47574;52.090;5.244;2023-08-30T07:55:19;100475.0;;;19.21;61.97
61676;BME280;47574;52.090;5.244;2023-08-30T07:56:55;100476.0;;;18.87;62.67
61676;BME280;47574;52.090;5.244;2023-08-30T08:00:08;100478.0;;;19.09;62.26
61676;BME280;47574;52.090;5.244;2023-08-30T08:01:45;100469.0;;;19.09;62.36
61676;BME280;47574;52.090;5.244;2023-08-30T08:03:21;100467.0;;;19.07;62.74
61676;BME280;47574;52.090;5.244;2023-08-30T08:06:34;100463.0;;;19.11;62.95
61676;BME280;47574;52.090;5.244;2023-08-30T08:08:10;100459.0;;;18.93;63.23
61676;BME280;47574;52.090;5.244;2023-08-30T08:09:46;100452.0;;;19.39;62.43
61676;BME280;47574;52.090;5.244;2023-08-30T08:11:22;100458.0;;;19.34;62.5
61676;BME280;47574;52.090;5.244;2023-08-30T08:14:34;100455.0;;;19.36;62.34
61676;BME280;47574;52.090;5.244;2023-08-30T08:16:10;100465.0;;;19.43;62.56
61676;BME280;47574;52.090;5.244;2023-08-30T08:17:47;100464.0;;;19.34;62.68
61676;BME280;47574;52.090;5.244;2023-08-30T08:21:00;100460.0;;;19.3;62.7
61676;BME280;47574;52.090;5.244;2023-08-30T08:22:37;100459.0;;;19.41;62.7
61676;BME280;47574;52.090;5.244;2023-08-30T08:24:13;100458.0;;;19.25;62.8
61676;BME280;47574;52.090;5.244;2023-08-30T08:27:25;100459.0;;;19.41;62.33
61676;BME280;47574;52.090;5.244;2023-08-30T08:29:01;100460.0;;;19.31;62.85
61676;BME280;47574;52.090;5.244;2023-08-30T08:30:37;100462.0;;;19.36;62.85
61676;BME280;47574;52.090;5.244;2023-08-30T08:33:51;100461.0;;;19.34;62.77
61676;BME280;47574;52.090;5.244;2023-08-30T08:35:40;100461.0;;;19.38;62.66
61676;BME280;47574;52.090;5.244;2023-08-30T08:37:16;100462.0;;;19.31;62.77
61676;BME280;47574;52.090;5.244;2023-08-30T08:38:52;100459.0;;;19.59;62.34
61676;BME280;47574;52.090;5.244;2023-08-30T08:42:04;100457.0;;;19.56;62.46
61676;BME280;47574;52.090;5.244;2023-08-30T08:43:42;100457.0;;;19.48;62.96
61676;BME280;47574;52.090;5.244;2023-08-30T08:45:18;100459.0;;;19.14;63.32
61676;BME280;47574;52.090;5.244;2023-08-30T08:46:55;100455.0;;;19.23;63.26
61676;BME280;47574;52.090;5.244;2023-08-30T08:50:15;100449.0;;;19.41;63.16
61676;BME280;47574;52.090;5.244;2023-08-30T08:51:52;100449.0;;;19.56;62.66
61676;BME280;47574;52.090;5.244;2023-08-30T08:53:28;100453.0;;;19.64;62.58
61676;BME280;47574;52.090;5.244;2023-08-30T08:56:42;100452.0;;;19.75;62.8
61676;BME280;47574;52.090;5.244;2023-08-30T08:58:19;100449.0;;;19.77;62.45
61676;BME280;47574;52.090;5.244;2023-08-30T08:59:55;100444.0;;;19.89;62.03
61676;BME280;47574;52.090;5.244;2023-08-30T09:03:11;100445.0;;;19.93;62.07
61676;BME280;47574;52.090;5.244;2023-08-30T09:04:46;100442.0;;;19.86;62.29
61676;BME280;47574;52.090;5.244;2023-08-30T09:06:23;100441.0;;;19.78;62.53
61676;BME280;47574;52.090;5.244;2023-08-30T09:08:00;100436.0;;;19.72;62.84
61676;BME280;47574;52.090;5.244;2023-08-30T09:11:14;100437.0;;;19.72;63.0
61676;BME280;47574;52.090;5.244;2023-08-30T09:12:50;100441.0;;;19.77;62.97
61676;BME280;47574;52.090;5.244;2023-08-30T09:14:26;100444.0;;;19.64;62.92
61676;BME280;47574;52.090;5.244;2023-08-30T09:17:46;100441.0;;;19.7;63.06
61676;BME280;47574;52.090;5.244;2023-08-30T09:19:22;100441.0;;;19.61;63.38
61676;BME280;47574;52.090;5.244;2023-08-30T09:21:05;100443.0;;;19.55;63.67
61676;BME280;47574;52.090;5.244;2023-08-30T09:22:42;100433.0;;;19.84;63.12
61676;BME280;47574;52.090;5.244;2023-08-30T09:25:55;100432.0;;;19.75;63.58
61676;BME280;47574;52.090;5.244;2023-08-30T09:27:32;100433.0;;;19.66;63.57
61676;BME280;47574;52.090;5.244;2023-08-30T09:29:08;100434.0;;;19.61;63.99
61676;BME280;47574;52.090;5.244;2023-08-30T09:32:24;100427.0;;;19.87;63.32
61676;BME280;47574;52.090;5.244;2023-08-30T09:34:00;100419.0;;;20.0;63.11
61676;BME280;47574;52.090;5.244;2023-08-30T09:35:44;100420.0;;;20.02;63.31
61676;BME280;47574;52.090;5.244;2023-08-30T09:37:20;100423.0;;;19.93;63.8
61676;BME280;47574;52.090;5.244;2023-08-30T09:40:33;100422.0;;;20.03;63.57
61676;BME280;47574;52.090;5.244;2023-08-30T09:42:09;100426.0;;;20.06;63.81
61676;BME280;47574;52.090;5.244;2023-08-30T09:43:46;100422.0;;;20.27;63.2
61676;BME280;47574;52.090;5.244;2023-08-30T09:46:58;100425.0;;;20.07;63.9
61676;BME280;47574;52.090;5.244;2023-08-30T09:48:37;100415.0;;;20.36;63.2
61676;BME280;47574;52.090;5.244;2023-08-30T09:50:17;100418.0;;;20.61;62.7
61676;BME280;47574;52.090;5.244;2023-08-30T09:51:54;100418.0;;;20.46;62.97
61676;BME280;47574;52.090;5.244;2023-08-30T09:55:14;100418.0;;;20.45;63.23
61676;BME280;47574;52.090;5.244;2023-08-30T09:56:50;100415.0;;;20.6;62.98
61676;BME280;47574;52.090;5.244;2023-08-30T09:58:27;100412.0;;;20.45;63.43
61676;BME280;47574;52.090;5.244;2023-08-30T10:01:42;100417.0;;;20.22;64.14
61676;BME280;47574;52.090;5.244;2023-08-30T10:03:19;100412.0;;;20.56;63.58
61676;BME280;47574;52.090;5.244;2023-08-30T10:04:58;100406.0;;;20.51;63.86
61676;BME280;47574;52.090;5.244;2023-08-30T10:06:35;100415.0;;;20.46;62.96
61676;BME280;47574;52.090;5.244;2023-08-30T10:09:50;100417.0;;;20.45;63.43
61676;BME280;47574;52.090;5.244;2023-08-30T10:11:28;100414.0;;;20.91;62.25
61676;BME280;47574;52.090;5.244;2023-08-30T10:13:05;100416.0;;;20.93;62.23
61676;BME280;47574;52.090;5.244;2023-08-30T10:16:19;100417.0;;;21.14;62.02
61676;BME280;47574;52.090;5.244;2023-08-30T10:17:58;100419.0;;;21.15;61.46
61676;BME280;47574;52.090;5.244;2023-08-30T10:19:36;100415.0;;;21.18;61.38
61676;BME280;47574;52.090;5.244;2023-08-30T10:21:14;100419.0;;;21.21;61.41
61676;BME280;47574;52.090;5.244;2023-08-30T10:24:37;100426.0;;;21.61;60.16
61676;BME280;47574;52.090;5.244;2023-08-30T10:26:16;100439.0;;;21.64;59.47
61676;BME280;47574;52.090;5.244;2023-08-30T10:27:53;100443.0;;;21.89;58.32
61676;BME280;47574;52.090;5.244;2023-08-30T10:29:33;100439.0;;;21.34;56.51
61676;BME280;47574;52.090;5.244;2023-08-30T10:32:49;100438.0;;;21.97;56.05
61676;BME280;47574;52.090;5.244;2023-08-30T10:34:31;100433.0;;;21.84;57.37
61676;BME280;47574;52.090;5.244;2023-08-30T10:36:08;100437.0;;;22.1;55.54
61676;BME280;47574;52.090;5.244;2023-08-30T10:39:34;100434.0;;;22.47;54.92
61676;BME280;47574;52.090;5.244;2023-08-30T10:41:11;100427.0;;;22.42;54.45
61676;BME280;47574;52.090;5.244;2023-08-30T10:42:58;100437.0;;;22.52;55.66
61676;BME280;47574;52.090;5.244;2023-08-30T10:44:34;100441.0;;;22.53;53.97
61676;BME280;47574;52.090;5.244;2023-08-30T10:46:10;100443.0;;;22.41;53.56
61676;BME280;47574;52.090;5.244;2023-08-30T10:49:39;100448.0;;;22.39;52.88
61676;BME280;47574;52.090;5.244;2023-08-30T10:51:21;100447.0;;;22.54;52.35
61676;BME280;47574;52.090;5.244;2023-08-30T10:52:57;100446.0;;;22.48;52.96
61676;BME280;47574;52.090;5.244;2023-08-30T10:54:37;100453.0;;;22.24;50.22
61676;BME280;47574;52.090;5.244;2023-08-30T10:57:58;100455.0;;;22.31;50.07
61676;BME280;47574;52.090;5.244;2023-08-30T10:59:35;100456.0;;;22.24;50.21
61676;BME280;47574;52.090;5.244;2023-08-30T11:01:12;100462.0;;;22.57;49.58
61676;BME280;47574;52.090;5.244;2023-08-30T11:04:26;100462.0;;;22.58;49.58
61676;BME280;47574;52.090;5.244;2023-08-30T11:06:03;100459.0;;;22.5;49.92
61676;BME280;47574;52.090;5.244;2023-08-30T11:07:39;100462.0;;;22.41;50.55
61676;BME280;47574;52.090;5.244;2023-08-30T11:09:16;100464.0;;;22.53;51.09